LYNI

Nis Airport

Nis, Serbia
TAF LYNI 251100Z 2512/2612 32016G28KT 9999 SCT033 TX17/2612Z TN01/2604Z BECMG 2515/2517 35006KT
Issued Valid From Valid To
Sep-25 @ 11:00 UTC
(4 hours ago)
Sep-25 @ 12:00 UTC
(3 hours ago)
Sep-26 @ 12:00 UTC
(in 21 hours)
Expired Click to View Sep-25 @ 12:00 to Sep-25 @ 15:00
TAF LYNI 251100Z 2512/2612 32016G28KT 9999 SCT033 TX17/2612Z TN01/2604Z
Wind Visibility Clouds
320° at 16 knots
 Gusting to 28 knots
10,000+ meters
  • Scattered at 3,300' AGL
Becoming Sep-25 @ 15:00 to Sep-26 @ 12:00
BECMG 2515/2517 35006KT
Wind Visibility Clouds
350° at 6 knots 10,000+ meters
  • Scattered at 3,300' AGL
TAF LYNI 251100Z 2512/2612 32016G28KT 9999 SCT033 TX17/2612Z TN01/2604Z BECMG 2515/2517 35006KT
Issued Sep-25 @ 11:00 UTC
(4 hours ago)
Valid From Sep-25 @ 12:00 UTC
(3 hours ago)
Valid To Sep-26 @ 12:00 UTC
(in 21 hours)
Sep-25 @ 12:00 - Sep-25 @ 15:00
Wind Visibility
320° at 16 knots
 Gusting to 28 knots
10,000+ meters
Clouds
  • Scattered at 3,300' AGL
Becoming Sep-25 @ 15:00 - Sep-26 @ 12:00
Wind Visibility
350° at 6 knots 10,000+ meters
Clouds
  • Scattered at 3,300' AGL